Time;durP1;ratioP1;P1;durP2;ratioP2;P2;SDS_P1;SDS_P2;PMS_P1;PMS_P2;Temp;Humidity;BMP_temperature;BMP_pressure;BME280_temperature;BME280_humidity;BME280_pressure;Samples;Min_cycle;Max_cycle;Signal;HPM_P1;HPM_P2
2023/02/18 00:01:38;;;;;;;5.40;0.80;;;;;;;8.54;80.75;99997.45;107098;1273;23018;-78
2023/02/18 00:04:09;;;;;;;5.60;0.80;;;;;;;8.52;80.55;100002.23;107063;1265;23257;-80
2023/02/18 00:06:39;;;;;;;2.00;0.60;;;;;;;8.50;79.57;100005.95;107099;1273;22712;-79
2023/02/18 00:09:11;;;;;;;4.20;0.40;;;;;;;8.50;78.39;100001.34;107102;1273;24200;-79
2023/02/18 00:11:42;;;;;;;3.50;0.50;;;;;;;8.50;78.13;100006.70;107096;1269;22523;-78
2023/02/18 00:14:15;;;;;;;5.40;0.60;;;;;;;8.49;77.09;100003.94;107070;1265;25351;-80
2023/02/18 00:16:47;;;;;;;3.60;0.40;;;;;;;8.49;76.76;100002.10;107219;1273;23308;-78
2023/02/18 00:19:20;;;;;;;4.70;0.40;;;;;;;8.49;75.57;100008.70;107237;1265;22632;-79
2023/02/18 00:21:50;;;;;;;3.90;0.60;;;;;;;8.51;75.02;100014.96;107329;1270;23350;-81
2023/02/18 00:24:21;;;;;;;5.70;0.60;;;;;;;8.49;75.03;100004.30;107464;1268;25217;-81
2023/02/18 00:26:53;;;;;;;2.30;0.40;;;;;;;8.47;73.02;100016.89;107223;1268;22528;-78
2023/02/18 00:29:24;;;;;;;3.80;0.30;;;;;;;8.48;72.28;100023.23;107080;1271;22542;-79
2023/02/18 00:31:55;;;;;;;9.10;0.50;;;;;;;8.45;72.71;100028.52;107139;1268;25333;-78
2023/02/18 00:34:26;;;;;;;3.60;0.50;;;;;;;8.41;72.37;100030.05;107386;1265;22535;-80
2023/02/18 00:36:56;;;;;;;3.20;0.40;;;;;;;8.38;72.13;100038.67;107414;1273;22581;-79
2023/02/18 00:39:27;;;;;;;2.90;0.30;;;;;;;8.35;72.29;100033.65;107663;1270;22528;-79
2023/02/18 00:41:58;;;;;;;5.00;0.60;;;;;;;8.32;72.00;100047.80;108192;1270;24885;-79
2023/02/18 00:44:29;;;;;;;3.60;0.30;;;;;;;8.29;71.25;100044.58;107377;1273;22475;-79
2023/02/18 00:47:00;;;;;;;6.00;0.40;;;;;;;8.28;71.79;100044.84;107361;1268;22540;-79
2023/02/18 00:49:31;;;;;;;3.60;0.30;;;;;;;8.23;71.63;100055.27;107476;1265;22546;-79
2023/02/18 00:52:01;;;;;;;5.50;0.40;;;;;;;8.19;71.42;100052.42;107460;1273;22531;-80
2023/02/18 00:54:33;;;;;;;3.00;0.30;;;;;;;8.16;70.55;100054.54;107374;1271;22531;-79
2023/02/18 00:57:03;;;;;;;2.00;0.40;;;;;;;8.15;70.68;100055.71;107383;1271;25318;-80
2023/02/18 00:59:35;;;;;;;7.00;0.40;;;;;;;8.13;70.78;100061.23;107440;1273;22515;-79
2023/02/18 01:02:06;;;;;;;5.30;0.60;;;;;;;8.08;70.62;100064.74;107398;1269;25226;-79
2023/02/18 01:04:37;;;;;;;6.30;0.50;;;;;;;8.06;70.41;100067.31;107382;1267;22531;-79
2023/02/18 01:07:09;;;;;;;1.20;0.20;;;;;;;8.04;69.99;100073.23;107338;1265;22558;-78
2023/02/18 01:09:40;;;;;;;2.80;0.40;;;;;;;8.02;70.19;100070.44;107205;1273;22604;-78
2023/02/18 01:12:10;;;;;;;4.30;0.30;;;;;;;7.98;69.73;100071.26;107155;1271;24335;-79
2023/02/18 01:14:42;;;;;;;7.60;0.40;;;;;;;7.94;69.43;100073.73;107198;1273;22544;-80
2023/02/18 01:17:13;;;;;;;4.90;0.30;;;;;;;7.89;69.05;100080.63;107348;1271;22996;-78
2023/02/18 01:19:44;;;;;;;7.00;0.50;;;;;;;7.86;68.79;100078.09;107337;1270;22550;-79
2023/02/18 01:22:15;;;;;;;1.90;0.30;;;;;;;7.84;68.78;100075.52;107325;1265;22547;-78
2023/02/18 01:24:45;;;;;;;4.70;0.30;;;;;;;7.81;69.20;100070.48;107302;1273;22553;-78
2023/02/18 01:27:16;;;;;;;6.10;0.50;;;;;;;7.78;68.90;100069.79;107153;1268;22471;-79
2023/02/18 01:29:47;;;;;;;3.60;0.30;;;;;;;7.75;69.16;100067.95;107172;1266;22679;-79
2023/02/18 01:32:18;;;;;;;9.70;1.30;;;;;;;7.70;69.20;100059.33;107155;1271;22555;-78
2023/02/18 01:34:48;;;;;;;6.00;0.80;;;;;;;7.65;67.88;100060.74;107168;1263;22524;-78
2023/02/18 01:37:19;;;;;;;11.00;1.30;;;;;;;7.63;67.47;100061.92;107286;1272;25340;-79
2023/02/18 01:39:50;;;;;;;12.30;1.20;;;;;;;7.64;66.81;100056.42;107198;1273;25574;-78
2023/02/18 01:42:25;;;;;;;10.80;0.80;;;;;;;7.64;66.54;100053.40;107257;1272;22808;-81
2023/02/18 01:45:16;;;;;;;10.30;1.20;;;;;;;7.65;65.69;100054.02;107425;1270;25342;-79
2023/02/18 01:47:50;;;;;;;7.80;1.10;;;;;;;7.63;65.91;100064.23;107305;1271;22655;-78
2023/02/18 01:50:21;;;;;;;6.30;0.70;;;;;;;7.62;65.36;100061.21;107120;1261;25230;-78
2023/02/18 01:52:52;;;;;;;10.40;1.10;;;;;;;7.61;64.75;100060.48;107126;1264;24252;-79
2023/02/18 01:55:23;;;;;;;5.80;0.70;;;;;;;7.60;65.60;100064.77;107301;1272;26342;-79
2023/02/18 01:57:55;;;;;;;3.80;0.50;;;;;;;7.56;65.18;100070.27;107403;1270;22648;-79
2023/02/18 02:00:27;;;;;;;3.20;0.50;;;;;;;7.55;65.29;100066.77;107261;1269;22690;-79
2023/02/18 02:02:59;;;;;;;5.70;0.70;;;;;;;7.51;64.26;100069.80;107217;1269;22622;-79
2023/02/18 02:05:34;;;;;;;5.80;0.70;;;;;;;7.50;63.79;100064.66;107243;1265;22543;-79
2023/02/18 02:08:06;;;;;;;6.10;0.60;;;;;;;7.49;63.67;100066.77;107313;1273;22684;-79
2023/02/18 02:10:53;;;;;;;3.90;1.10;;;;;;;7.49;62.44;100062.66;107294;1273;22533;-77
2023/02/18 02:13:33;;;;;;;3.40;0.50;;;;;;;7.48;63.05;100065.21;107201;1265;25339;-79
2023/02/18 02:16:11;;;;;;;2.00;0.30;;;;;;;7.46;62.76;100055.87;107267;1273;22527;-79
2023/02/18 02:18:56;;;;;;;4.20;0.20;;;;;;;7.43;62.43;100063.95;107399;1273;22546;-79
2023/02/18 02:22:00;;;;;;;6.50;0.50;;;;;;;7.43;62.06;100058.71;107303;1265;22579;-78
2023/02/18 02:25:11;;;;;;;7.40;0.40;;;;;;;7.41;62.71;100063.91;107116;1273;22576;-78
2023/02/18 02:28:10;;;;;;;1.90;0.20;;;;;;;7.37;62.91;100070.39;106859;1277;24352;-78
2023/02/18 02:31:14;;;;;;;3.40;0.50;;;;;;;7.30;62.66;100076.12;106803;1277;24315;-79
2023/02/18 02:34:31;;;;;;;1.90;0.20;;;;;;;7.23;62.36;100079.84;106717;1277;24365;-78
2023/02/18 02:37:08;;;;;;;2.40;0.30;;;;;;;7.18;62.69;100080.13;106809;1277;24547;-78
2023/02/18 02:39:51;;;;;;;3.90;0.40;;;;;;;7.15;63.47;100076.69;106907;1277;23010;-79
2023/02/18 02:42:33;;;;;;;2.50;0.50;;;;;;;7.09;63.48;100077.91;106929;1271;22534;-80
2023/02/18 02:45:11;;;;;;;5.40;0.70;;;;;;;7.05;63.93;100078.15;106881;1277;22533;-79
2023/02/18 02:47:49;;;;;;;6.60;0.70;;;;;;;7.01;64.22;100076.31;106912;1274;24259;-78
2023/02/18 02:50:25;;;;;;;6.80;0.90;;;;;;;6.97;64.70;100076.00;106915;1273;24561;-78
2023/02/18 02:52:59;;;;;;;6.40;1.50;;;;;;;6.92;64.88;100082.70;106996;1272;22827;-78
2023/02/18 02:55:30;;;;;;;3.90;0.60;;;;;;;6.87;65.19;100079.33;106873;1277;25545;-78
2023/02/18 02:58:01;;;;;;;4.70;0.70;;;;;;;6.85;65.30;100085.06;106682;1273;25362;-79
2023/02/18 03:00:46;;;;;;;6.20;0.70;;;;;;;6.83;64.78;100084.42;107086;1273;22523;-78
2023/02/18 03:03:39;;;;;;;4.70;0.40;;;;;;;6.83;64.17;100092.05;107127;1261;25346;-78
2023/02/18 03:06:35;;;;;;;4.10;0.30;;;;;;;6.84;63.57;100089.77;107140;1268;25372;-78
2023/02/18 03:09:16;;;;;;;3.90;0.50;;;;;;;6.85;63.39;100084.90;107175;1271;23263;-78
2023/02/18 03:11:57;;;;;;;5.10;0.50;;;;;;;6.85;63.60;100088.56;107201;1269;23806;-80
2023/02/18 03:14:33;;;;;;;3.40;0.40;;;;;;;6.82;63.16;100100.50;107232;1271;24288;-78
2023/02/18 03:17:12;;;;;;;3.10;0.40;;;;;;;6.81;63.32;100098.46;107159;1272;24411;-78
2023/02/18 03:19:47;;;;;;;3.90;0.70;;;;;;;6.77;63.68;100095.34;107205;1273;24224;-79
2023/02/18 03:22:23;;;;;;;3.90;0.30;;;;;;;6.73;63.12;100101.10;107216;1265;22529;-79
2023/02/18 03:24:57;;;;;;;4.10;0.30;;;;;;;6.70;62.44;100104.52;107614;1270;22524;-79
2023/02/18 03:27:32;;;;;;;4.50;0.60;;;;;;;6.71;62.78;100103.52;107241;1270;22538;-79
2023/02/18 03:30:12;;;;;;;6.40;0.50;;;;;;;6.69;62.34;100106.14;107281;1270;22529;-79
2023/02/18 03:32:42;;;;;;;;;;;;;;;6.69;61.87;100102.50;107283;1265;22518;-79
2023/02/18 03:35:16;;;;;;;2.50;0.30;;;;;;;6.68;61.99;100103.82;107212;1268;24248;-79
2023/02/18 03:37:51;;;;;;;4.00;0.50;;;;;;;6.66;61.88;100104.77;107345;1272;22568;-79
2023/02/18 03:40:22;;;;;;;3.20;0.30;;;;;;;6.64;62.01;100107.39;107217;1269;22530;-81
2023/02/18 03:42:53;;;;;;;5.00;0.50;;;;;;;6.61;62.30;100109.18;107224;1272;22535;-79
2023/02/18 03:45:24;;;;;;;5.40;0.20;;;;;;;6.56;61.92;100113.08;107242;1268;22530;-78
2023/02/18 03:47:55;;;;;;;4.70;0.40;;;;;;;6.53;61.90;100115.24;107397;1262;23204;-79
2023/02/18 03:50:26;;;;;;;2.90;0.10;;;;;;;6.50;61.91;100117.81;107244;1271;22535;-77
2023/02/18 03:52:56;;;;;;;2.70;0.40;;;;;;;6.49;61.52;100119.11;107310;1265;24831;-79
2023/02/18 03:55:27;;;;;;;3.00;0.20;;;;;;;6.48;61.51;100120.34;107615;1272;22559;-78
2023/02/18 03:57:58;;;;;;;5.90;0.30;;;;;;;6.47;61.45;100127.51;108076;1272;22538;-78
2023/02/18 04:00:29;;;;;;;3.10;0.30;;;;;;;6.45;61.00;100129.35;107415;1272;26526;-78
2023/02/18 04:03:00;;;;;;;3.70;0.30;;;;;;;6.45;61.11;100133.30;107294;1272;22516;-78
2023/02/18 04:05:31;;;;;;;2.40;0.30;;;;;;;6.44;61.02;100131.44;107185;1265;22534;-79
2023/02/18 04:08:01;;;;;;;4.60;0.40;;;;;;;6.42;61.15;100133.49;107193;1272;22518;-78
2023/02/18 04:10:32;;;;;;;2.20;0.20;;;;;;;6.39;61.08;100140.12;107299;1272;25318;-78
2023/02/18 04:13:04;;;;;;;2.90;0.20;;;;;;;6.37;60.88;100137.19;107303;1272;22538;-78
2023/02/18 04:15:35;;;;;;;4.70;0.30;;;;;;;6.36;61.26;100136.34;107365;1265;22533;-78
2023/02/18 04:18:06;;;;;;;3.30;0.20;;;;;;;6.33;61.23;100137.86;107254;1272;25322;-78
2023/02/18 04:20:37;;;;;;;4.10;0.30;;;;;;;6.30;61.18;100132.46;107279;1265;24277;-78
2023/02/18 04:23:08;;;;;;;3.70;0.20;;;;;;;6.26;61.15;100136.25;107243;1269;25249;-78
2023/02/18 04:25:39;;;;;;;4.60;0.10;;;;;;;6.22;60.79;100137.09;107174;1265;22528;-78
2023/02/18 04:28:12;;;;;;;2.90;0.60;;;;;;;6.21;61.06;100137.20;107272;1266;22495;-79
2023/02/18 04:30:43;;;;;;;5.70;0.40;;;;;;;6.20;61.25;100141.77;107166;1272;22535;-78
2023/02/18 04:33:14;;;;;;;3.00;0.20;;;;;;;6.18;61.07;100148.52;107214;1267;22539;-79
2023/02/18 04:35:45;;;;;;;5.60;0.20;;;;;;;6.15;61.38;100149.16;107274;1272;23019;-80
2023/02/18 04:38:16;;;;;;;4.30;0.20;;;;;;;6.11;61.53;100146.55;107277;1270;24191;-78
2023/02/18 04:40:47;;;;;;;3.30;0.20;;;;;;;6.07;61.29;100157.91;107254;1265;22534;-79
2023/02/18 04:43:18;;;;;;;4.80;0.30;;;;;;;6.04;61.36;100156.11;107233;1265;25332;-78
2023/02/18 04:45:49;;;;;;;3.90;0.30;;;;;;;6.04;61.75;100160.27;107109;1272;23346;-78
2023/02/18 04:48:20;;;;;;;2.00;0.20;;;;;;;6.03;61.76;100156.56;107315;1272;22546;-78
2023/02/18 04:50:51;;;;;;;2.60;0.20;;;;;;;6.02;61.86;100151.90;107116;1267;22537;-77
2023/02/18 04:53:22;;;;;;;3.20;0.50;;;;;;;6.02;61.91;100152.86;107302;1272;24217;-77
2023/02/18 04:55:54;;;;;;;5.00;0.70;;;;;;;6.03;61.94;100147.08;107180;1270;25353;-78
2023/02/18 04:58:25;;;;;;;4.80;0.40;;;;;;;6.04;62.04;100151.31;107186;1272;25350;-78
2023/02/18 05:00:58;;;;;;;2.30;0.40;;;;;;;6.06;62.12;100143.56;107239;1272;22543;-79
2023/02/18 05:03:30;;;;;;;10.00;0.80;;;;;;;6.07;62.17;100144.52;107322;1271;24300;-78
2023/02/18 05:06:02;;;;;;;3.10;0.30;;;;;;;6.09;62.46;100148.98;107273;1270;22535;-78
2023/02/18 05:08:33;;;;;;;2.40;0.40;;;;;;;6.09;62.60;100147.09;107321;1266;22542;-78
2023/02/18 05:11:07;;;;;;;8.80;0.50;;;;;;;6.06;62.33;100147.00;107282;1271;23715;-78
2023/02/18 05:13:38;;;;;;;5.10;0.20;;;;;;;6.04;62.55;100147.89;107474;1269;22621;-78
2023/02/18 05:16:09;;;;;;;3.10;0.30;;;;;;;6.02;62.69;100152.64;107254;1265;25337;-80
2023/02/18 05:18:39;;;;;;;2.70;0.20;;;;;;;5.99;62.54;100143.41;107178;1272;22897;-78
2023/02/18 05:21:11;;;;;;;5.20;0.40;;;;;;;5.97;62.50;100145.29;107267;1272;25416;-77
2023/02/18 05:23:42;;;;;;;4.60;0.50;;;;;;;5.98;62.47;100143.05;107196;1272;24731;-78
2023/02/18 05:26:12;;;;;;;2.80;0.30;;;;;;;5.99;62.33;100139.61;107246;1272;22535;-78
2023/02/18 05:28:43;;;;;;;2.60;0.20;;;;;;;6.01;62.35;100143.17;107145;1271;22530;-80
2023/02/18 05:31:14;;;;;;;4.40;0.30;;;;;;;6.02;62.26;100155.50;107272;1269;25244;-76
2023/02/18 05:33:44;;;;;;;2.00;0.10;;;;;;;6.02;62.21;100159.20;107178;1272;22535;-78
2023/02/18 05:36:15;;;;;;;1.10;0.20;;;;;;;6.02;62.28;100161.02;107163;1272;22527;-78
2023/02/18 05:38:46;;;;;;;2.90;0.20;;;;;;;6.02;62.31;100163.88;107178;1269;22546;-77
2023/02/18 05:41:17;;;;;;;4.90;0.30;;;;;;;6.04;62.15;100170.09;107037;1270;22547;-78
2023/02/18 05:46:36;;;;;;;4.70;0.30;;;;;;;6.08;61.83;100168.09;107116;1273;22531;-79
2023/02/18 05:49:08;;;;;;;2.70;0.30;;;;;;;6.11;61.74;100174.39;107176;1262;24252;-80
2023/02/18 05:51:39;;;;;;;4.20;0.30;;;;;;;6.15;61.80;100180.73;107124;1273;22535;-77
2023/02/18 05:54:10;;;;;;;1.50;0.20;;;;;;;6.18;61.81;100178.42;107050;1268;22533;-76
2023/02/18 05:56:41;;;;;;;7.10;0.40;;;;;;;6.20;61.79;100186.68;107071;1268;24196;-75
2023/02/18 05:59:12;;;;;;;2.70;0.20;;;;;;;6.22;61.49;100182.58;107050;1273;22544;-75
2023/02/18 06:01:42;;;;;;;1.90;0.20;;;;;;;6.25;61.49;100183.30;107047;1271;22540;-76
2023/02/18 06:04:14;;;;;;;3.00;0.20;;;;;;;6.28;61.57;100187.17;107030;1273;22533;-76
2023/02/18 06:06:45;;;;;;;2.60;0.30;;;;;;;6.29;61.37;100193.72;106977;1274;25286;-76
2023/02/18 06:09:16;;;;;;;4.10;0.40;;;;;;;6.31;61.27;100194.42;107164;1271;26534;-76
2023/02/18 06:11:46;;;;;;;4.10;0.40;;;;;;;6.32;61.38;100194.64;107098;1274;25286;-76
2023/02/18 06:14:17;;;;;;;9.70;0.60;;;;;;;6.33;61.30;100193.63;107081;1271;22530;-76
2023/02/18 06:16:48;;;;;;;6.40;0.60;;;;;;;6.35;61.17;100202.36;106949;1267;22563;-76
2023/02/18 06:19:19;;;;;;;2.60;0.20;;;;;;;6.36;61.34;100203.27;107045;1270;22531;-77
2023/02/18 06:21:49;;;;;;;5.80;0.20;;;;;;;6.38;61.17;100195.54;107037;1274;22541;-76
2023/02/18 06:24:20;;;;;;;4.20;0.30;;;;;;;6.39;60.59;100193.98;107021;1274;22624;-76
2023/02/18 06:26:51;;;;;;;1.90;0.30;;;;;;;6.42;60.74;100193.07;107061;1270;25531;-77
2023/02/18 06:29:21;;;;;;;6.00;0.40;;;;;;;6.43;60.86;100186.55;107152;1271;24240;-76
2023/02/18 06:31:52;;;;;;;2.90;0.20;;;;;;;6.45;60.67;100195.04;107174;1271;22537;-77
2023/02/18 06:34:23;;;;;;;2.80;0.50;;;;;;;6.48;60.59;100187.16;107021;1274;22534;-75
2023/02/18 06:36:54;;;;;;;1.70;0.30;;;;;;;6.49;60.89;100188.13;107022;1274;22550;-76
2023/02/18 06:39:25;;;;;;;5.00;0.30;;;;;;;6.50;60.76;100188.19;107111;1271;22601;-76
2023/02/18 06:41:57;;;;;;;5.50;0.30;;;;;;;6.51;60.50;100190.03;107081;1270;24986;-76
2023/02/18 06:44:28;;;;;;;3.20;0.30;;;;;;;6.54;60.16;100193.75;107176;1270;22659;-76
2023/02/18 06:46:58;;;;;;;1.60;0.20;;;;;;;6.58;60.50;100201.06;107183;1258;24266;-75
2023/02/18 06:49:29;;;;;;;3.60;0.20;;;;;;;6.59;60.35;100198.86;107161;1249;22546;-76
2023/02/18 06:52:00;;;;;;;4.10;0.20;;;;;;;6.62;60.12;100205.58;107224;1260;22531;-76
2023/02/18 06:54:31;;;;;;;3.80;0.30;;;;;;;6.63;60.35;100204.42;107238;1265;22528;-76
2023/02/18 06:57:02;;;;;;;3.20;0.60;;;;;;;6.64;60.32;100203.82;107136;1251;22534;-76
2023/02/18 06:59:33;;;;;;;2.50;0.30;;;;;;;6.66;60.01;100209.08;107108;1271;22967;-76
2023/02/18 07:02:04;;;;;;;3.10;0.60;;;;;;;6.68;59.95;100210.10;107204;1271;22527;-76
2023/02/18 07:04:34;;;;;;;2.10;0.30;;;;;;;6.70;60.04;100209.06;107195;1271;22614;-77
2023/02/18 07:07:05;;;;;;;4.60;0.40;;;;;;;6.71;59.79;100207.13;107153;1266;22618;-76
2023/02/18 07:09:36;;;;;;;3.80;0.30;;;;;;;6.72;59.68;100208.84;107194;1271;25309;-76
2023/02/18 07:12:07;;;;;;;4.70;0.40;;;;;;;6.73;60.08;100213.01;107663;1271;22562;-75
2023/02/18 07:14:38;;;;;;;1.60;0.30;;;;;;;6.73;59.88;100213.72;107659;1265;22568;-75
2023/02/18 07:17:09;;;;;;;3.00;0.30;;;;;;;6.73;59.77;100219.65;107218;1272;24234;-75
2023/02/18 07:19:40;;;;;;;1.80;0.30;;;;;;;6.74;59.85;100225.11;107176;1271;22527;-75
2023/02/18 07:22:11;;;;;;;6.80;0.50;;;;;;;6.74;60.16;100216.30;107176;1271;22584;-75
2023/02/18 07:24:42;;;;;;;2.30;0.30;;;;;;;6.74;60.15;100216.39;107250;1267;25347;-76
2023/02/18 07:27:13;;;;;;;5.10;0.30;;;;;;;6.74;60.22;100215.20;107248;1271;22527;-75
2023/02/18 07:29:44;;;;;;;4.20;0.30;;;;;;;6.75;60.43;100217.23;107206;1269;25501;-75
2023/02/18 07:32:16;;;;;;;6.40;0.40;;;;;;;6.75;60.11;100214.73;107146;1271;23251;-76
2023/02/18 07:34:47;;;;;;;7.80;0.70;;;;;;;6.76;60.14;100215.25;107353;1264;25537;-77
2023/02/18 07:37:17;;;;;;;3.70;0.40;;;;;;;6.78;60.23;100216.08;107412;1267;22725;-76
2023/02/18 07:39:48;;;;;;;4.00;0.40;;;;;;;6.80;60.05;100217.10;107098;1272;22534;-76
2023/02/18 07:42:19;;;;;;;7.10;0.30;;;;;;;6.82;60.17;100221.54;107136;1271;23394;-76
2023/02/18 07:44:50;;;;;;;3.20;0.50;;;;;;;6.85;60.02;100217.32;107294;1265;22942;-76
2023/02/18 07:47:21;;;;;;;5.00;0.40;;;;;;;6.88;60.05;100218.61;107147;1272;22532;-77
2023/02/18 07:49:51;;;;;;;3.20;0.40;;;;;;;6.92;60.38;100215.50;107328;1268;22531;-76
2023/02/18 07:52:22;;;;;;;3.10;0.30;;;;;;;6.96;60.38;100216.79;107142;1272;22538;-77
2023/02/18 07:54:53;;;;;;;3.00;0.40;;;;;;;7.00;60.27;100216.27;107100;1272;25224;-76
2023/02/18 07:57:24;;;;;;;2.80;0.50;;;;;;;7.04;60.04;100215.47;107119;1272;22541;-76
2023/02/18 07:59:54;;;;;;;2.00;0.20;;;;;;;7.07;59.95;100215.80;107141;1270;24344;-75
2023/02/18 08:02:26;;;;;;;2.50;0.20;;;;;;;7.11;60.01;100211.53;107138;1270;22528;-74
2023/02/18 08:04:56;;;;;;;3.30;0.30;;;;;;;7.15;59.99;100219.13;107275;1264;24333;-77
2023/02/18 08:07:27;;;;;;;3.30;0.30;;;;;;;7.19;59.76;100215.67;107291;1267;22524;-76
2023/02/18 08:09:58;;;;;;;1.80;0.30;;;;;;;7.23;59.42;100216.00;107314;1264;23069;-76
2023/02/18 08:12:29;;;;;;;3.80;0.30;;;;;;;7.26;59.71;100211.56;107491;1271;22539;-79
2023/02/18 08:15:00;;;;;;;5.80;0.50;;;;;;;7.29;59.69;100214.23;107601;1271;23017;-79
2023/02/18 08:17:30;;;;;;;6.50;0.50;;;;;;;7.31;59.90;100210.96;107582;1269;24154;-77
2023/02/18 08:20:01;;;;;;;3.50;0.40;;;;;;;7.34;60.11;100210.37;107948;1270;22525;-81
2023/02/18 08:22:32;;;;;;;3.50;0.50;;;;;;;7.37;60.32;100209.16;107711;1257;22641;-80
2023/02/18 08:25:03;;;;;;;7.40;0.50;;;;;;;7.39;60.03;100208.45;107896;1268;25340;-77
2023/02/18 08:27:34;;;;;;;4.40;0.30;;;;;;;7.41;59.84;100206.92;107268;1269;24191;-75
2023/02/18 08:30:06;;;;;;;3.10;0.40;;;;;;;7.44;59.51;100219.89;107119;1271;25284;-76
2023/02/18 08:32:37;;;;;;;4.00;0.40;;;;;;;7.46;59.59;100215.20;107252;1271;22538;-75
2023/02/18 08:35:10;;;;;;;3.20;0.40;;;;;;;7.49;59.44;100217.23;107252;1270;22550;-76
2023/02/18 08:37:41;;;;;;;3.10;0.30;;;;;;;7.51;59.90;100214.45;107192;1267;22534;-77
2023/02/18 08:40:14;;;;;;;3.10;0.40;;;;;;;7.54;59.57;100218.53;107284;1268;23356;-75
2023/02/18 08:42:45;;;;;;;4.20;0.30;;;;;;;7.56;59.24;100217.19;107382;1272;22532;-78
2023/02/18 08:45:16;;;;;;;3.60;0.30;;;;;;;7.58;59.09;100213.95;107219;1270;25519;-78
2023/02/18 08:47:47;;;;;;;1.80;0.20;;;;;;;7.60;59.43;100207.19;107321;1272;25377;-77
2023/02/18 08:50:19;;;;;;;3.30;0.30;;;;;;;7.62;59.10;100208.21;107101;1273;22878;-77
2023/02/18 08:52:50;;;;;;;4.30;0.40;;;;;;;7.64;59.34;100210.02;107199;1267;26508;-79
2023/02/18 08:55:21;;;;;;;5.10;0.20;;;;;;;7.67;59.60;100211.55;106984;1267;172463;-77
2023/02/18 08:57:52;;;;;;;4.00;0.30;;;;;;;7.70;59.46;100221.13;107071;1272;25452;-76
2023/02/18 09:00:24;;;;;;;4.70;0.40;;;;;;;7.72;59.33;100220.58;107188;1273;23147;-77
2023/02/18 09:02:54;;;;;;;2.00;0.40;;;;;;;7.73;59.35;100216.88;107172;1273;24204;-77
2023/02/18 09:05:25;;;;;;;3.80;0.50;;;;;;;7.73;59.14;100223.77;107171;1273;22650;-76
2023/02/18 09:07:56;;;;;;;3.00;0.40;;;;;;;7.74;59.34;100224.86;107189;1268;25214;-76
2023/02/18 09:10:27;;;;;;;4.50;0.40;;;;;;;7.75;59.33;100218.21;107213;1264;22592;-76
2023/02/18 09:12:58;;;;;;;2.20;0.20;;;;;;;7.77;59.67;100220.54;107115;1273;22549;-75
2023/02/18 09:15:31;;;;;;;3.20;0.30;;;;;;;7.77;59.09;100220.20;107123;1272;22557;-75
2023/02/18 09:18:01;;;;;;;2.50;0.30;;;;;;;7.78;59.10;100213.20;107252;1268;22594;-77
2023/02/18 09:20:32;;;;;;;2.20;0.30;;;;;;;7.79;59.30;100210.48;107219;1273;22489;-76
2023/02/18 09:23:03;;;;;;;5.40;0.40;;;;;;;7.81;59.26;100211.95;107242;1270;25498;-77
2023/02/18 09:25:34;;;;;;;2.60;0.30;;;;;;;7.82;59.23;100209.88;107264;1272;22530;-76
2023/02/18 09:28:05;;;;;;;3.50;0.30;;;;;;;7.83;59.29;100207.73;107184;1273;22543;-76
2023/02/18 09:30:36;;;;;;;4.50;0.40;;;;;;;7.82;59.42;100208.83;107198;1272;25517;-76
2023/02/18 09:33:07;;;;;;;5.80;0.60;;;;;;;7.80;59.52;100215.29;107149;1272;22597;-77
2023/02/18 09:35:42;;;;;;;5.90;0.70;;;;;;;7.79;59.35;100213.79;107156;1267;23880;-76
2023/02/18 09:38:15;;;;;;;4.40;0.50;;;;;;;7.76;59.63;100215.16;107132;1271;24272;-76
2023/02/18 09:40:48;;;;;;;3.60;0.40;;;;;;;7.74;60.18;100213.67;107119;1268;26524;-77
2023/02/18 09:43:29;;;;;;;3.10;0.40;;;;;;;7.72;60.81;100211.60;107165;1265;23091;-78
2023/02/18 09:46:02;;;;;;;5.80;0.50;;;;;;;7.71;61.27;100201.16;107112;1272;24340;-79
2023/02/18 09:48:36;;;;;;;3.70;0.20;;;;;;;7.71;61.55;100207.98;107130;1272;22530;-77
2023/02/18 09:51:07;;;;;;;5.40;0.50;;;;;;;7.67;61.82;100211.59;107305;1273;22530;-77
2023/02/18 09:53:38;;;;;;;7.10;0.60;;;;;;;7.60;62.07;100210.77;107178;1270;22529;-76
2023/02/18 09:56:12;;;;;;;3.50;0.30;;;;;;;7.55;62.68;100208.02;107241;1267;23301;-79
2023/02/18 09:58:44;;;;;;;4.90;0.30;;;;;;;7.52;63.17;100204.02;107423;1267;25281;-76
2023/02/18 10:01:25;;;;;;;1.80;0.30;;;;;;;7.48;63.70;100203.88;107335;1266;22527;-76
2023/02/18 10:03:58;;;;;;;3.00;0.40;;;;;;;7.41;64.00;100202.94;107163;1272;24222;-76
2023/02/18 10:06:33;;;;;;;2.80;0.50;;;;;;;7.39;64.04;100202.47;107333;1271;22703;-77
2023/02/18 10:09:09;;;;;;;4.80;0.90;;;;;;;7.38;64.21;100202.29;107242;1271;22697;-77
2023/02/18 10:11:43;;;;;;;2.50;0.40;;;;;;;7.36;63.95;100199.59;107178;1272;22522;-76
2023/02/18 10:14:15;;;;;;;5.70;0.70;;;;;;;7.34;63.69;100198.56;107215;1267;24245;-75
2023/02/18 10:16:49;;;;;;;3.30;0.80;;;;;;;7.31;63.74;100197.73;107277;1267;25345;-76
2023/02/18 10:19:27;;;;;;;8.90;1.80;;;;;;;7.30;63.86;100188.45;107478;1267;25321;-76
2023/02/18 10:22:00;;;;;;;8.40;1.40;;;;;;;7.32;64.10;100188.97;107381;1267;25342;-77
2023/02/18 10:24:34;;;;;;;5.80;1.00;;;;;;;7.34;64.13;100188.32;107622;1270;24254;-77
2023/02/18 10:27:08;;;;;;;5.30;0.60;;;;;;;7.37;64.64;100179.73;107968;1267;22563;-77
2023/02/18 10:29:38;;;;;;;4.60;0.30;;;;;;;7.41;64.84;100173.68;107553;1272;22554;-78
2023/02/18 10:32:19;;;;;;;5.30;0.80;;;;;;;7.43;65.30;100173.36;107169;1272;22529;-78
2023/02/18 10:34:53;;;;;;;6.30;0.50;;;;;;;7.42;65.58;100165.33;107132;1271;22543;-77
2023/02/18 10:37:45;;;;;;;4.60;0.40;;;;;;;7.39;65.63;100172.11;107157;1269;25262;-77
2023/02/18 10:40:26;;;;;;;4.00;0.50;;;;;;;7.33;66.07;100164.30;107120;1267;22544;-76
2023/02/18 10:43:01;;;;;;;;;;;;;;;7.28;66.70;100164.15;107238;1272;22548;-77
2023/02/18 10:45:45;;;;;;;5.10;0.60;;;;;;;7.22;67.12;100156.85;107234;1272;25230;-78
2023/02/18 10:48:32;;;;;;;5.50;0.60;;;;;;;7.19;67.48;100150.14;107197;1272;24224;-77
2023/02/18 10:51:10;;;;;;;3.30;0.50;;;;;;;7.18;67.92;100144.57;107199;1271;22528;-77
2023/02/18 10:53:44;;;;;;;7.50;0.50;;;;;;;7.17;68.24;100142.91;107296;1271;25321;-76
2023/02/18 10:56:35;;;;;;;6.00;1.00;;;;;;;7.14;68.52;100127.27;107196;1265;24258;-76
2023/02/18 10:59:13;;;;;;;3.90;0.60;;;;;;;7.09;69.37;100117.23;107218;1271;22538;-77
2023/02/18 11:01:45;;;;;;;6.80;0.80;;;;;;;7.05;69.79;100110.48;107265;1269;22542;-76
2023/02/18 11:04:18;;;;;;;8.30;0.80;;;;;;;7.03;70.40;100113.06;107239;1266;25351;-77
2023/02/18 11:06:51;;;;;;;4.90;0.50;;;;;;;7.00;70.53;100103.23;107283;1267;22535;-76
2023/02/18 11:09:30;;;;;;;6.80;1.00;;;;;;;6.99;70.65;100098.52;107484;1265;22531;-77
2023/02/18 11:12:11;;;;;;;7.90;0.80;;;;;;;7.00;71.00;100089.86;107328;1265;24313;-76
2023/02/18 11:14:45;;;;;;;4.30;0.60;;;;;;;6.99;71.09;100080.20;107238;1265;22637;-76
2023/02/18 11:17:31;;;;;;;5.90;0.60;;;;;;;7.00;71.32;100077.86;107294;1257;22547;-76
2023/02/18 11:20:18;;;;;;;8.20;0.60;;;;;;;7.02;71.52;100071.45;107194;1270;22534;-75
2023/02/18 11:22:50;;;;;;;8.80;0.70;;;;;;;7.04;71.74;100067.81;107343;1270;25342;-77
2023/02/18 11:25:25;;;;;;;5.80;0.70;;;;;;;7.06;72.24;100062.16;107472;1258;22601;-76
2023/02/18 11:28:01;;;;;;;4.30;0.50;;;;;;;7.08;72.08;100062.48;107462;1271;22530;-75
2023/02/18 11:30:36;;;;;;;6.60;0.90;;;;;;;7.11;72.25;100059.41;107644;1272;24193;-76
2023/02/18 11:33:14;;;;;;;7.90;0.60;;;;;;;7.13;72.46;100047.59;107647;1267;25349;-75
2023/02/18 11:35:51;;;;;;;5.20;0.70;;;;;;;7.13;72.62;100044.82;107284;1266;22526;-77
2023/02/18 11:38:26;;;;;;;9.20;0.90;;;;;;;7.12;72.94;100034.70;107167;1269;22562;-75
2023/02/18 11:41:02;;;;;;;4.00;0.60;;;;;;;7.09;73.04;100026.24;107319;1265;22539;-75
2023/02/18 11:43:36;;;;;;;8.10;0.80;;;;;;;7.08;73.45;100018.14;107525;1265;25397;-74
2023/02/18 11:46:16;;;;;;;7.50;0.70;;;;;;;7.08;73.68;100012.03;107358;1260;22558;-75
2023/02/18 11:48:47;;;;;;;10.40;0.80;;;;;;;7.07;74.13;100008.77;107211;1265;24217;-75
2023/02/18 11:51:21;;;;;;;6.30;1.60;;;;;;;7.04;74.29;99997.12;107308;1265;22530;-76
2023/02/18 11:54:01;;;;;;;10.90;1.30;;;;;;;7.06;74.63;99986.67;107304;1265;24222;-77
2023/02/18 11:56:35;;;;;;;22.30;7.10;;;;;;;7.08;75.06;99972.94;107484;1270;25231;-75
2023/02/18 11:59:06;;;;;;;16.90;2.10;;;;;;;7.09;75.49;99965.17;107408;1269;24203;-74